createdAt,value
2019-04-11T00:00:17.475Z,49.19
2019-04-11T00:02:30.916Z,49.94
2019-04-11T00:04:42.074Z,50.33
2019-04-11T00:06:54.006Z,50.15
2019-04-11T00:09:08.245Z,49.85
2019-04-11T00:11:19.873Z,49.96
2019-04-11T00:13:33.375Z,50.03
2019-04-11T00:15:44.492Z,50.24
2019-04-11T00:17:56.426Z,49.61
2019-04-11T00:20:07.705Z,50.53
2019-04-11T00:22:19.461Z,50.68
2019-04-11T00:24:31.344Z,50.96
2019-04-11T00:26:42.300Z,51.13
2019-04-11T00:28:54.224Z,51.50
2019-04-11T00:31:06.273Z,51.82
2019-04-11T00:33:18.212Z,51.88
2019-04-11T00:35:29.112Z,51.63
2019-04-11T00:37:39.965Z,51.38
2019-04-11T00:39:52.027Z,51.10
2019-04-11T00:42:04.104Z,50.83
2019-04-11T00:44:15.026Z,50.28
2019-04-11T00:46:26.595Z,50.39
2019-04-11T00:48:37.719Z,49.97
2019-04-11T00:50:49.635Z,50.34
2019-04-11T00:53:01.474Z,49.82
2019-04-11T00:55:13.391Z,50.16
2019-04-11T00:57:25.190Z,50.17
2019-04-11T00:59:36.355Z,50.34
2019-04-11T01:01:47.441Z,49.81
2019-04-11T01:03:59.190Z,50.49
2019-04-11T01:06:10.246Z,50.47
2019-04-11T01:08:21.825Z,50.65
2019-04-11T01:10:34.043Z,50.68
2019-04-11T01:12:44.981Z,50.91
2019-04-11T01:14:55.874Z,51.27
2019-04-11T01:17:07.847Z,51.81
2019-04-11T01:19:18.858Z,52.01
2019-04-11T01:21:30.614Z,52.39
2019-04-11T01:23:42.889Z,52.60
2019-04-11T01:25:54.921Z,52.71
2019-04-11T01:28:06.783Z,52.79
2019-04-11T01:30:21.496Z,52.43
2019-04-11T01:32:32.590Z,52.17
2019-04-11T01:34:44.535Z,52.13
2019-04-11T01:36:55.587Z,52.15
2019-04-11T01:39:25.201Z,52.14
2019-04-11T01:41:38.346Z,52.15
2019-04-11T01:43:56.115Z,52.06
2019-04-11T01:46:02.479Z,52.27
2019-04-11T01:48:17.943Z,51.73
2019-04-11T01:50:30.094Z,52.13
2019-04-11T01:52:40.946Z,52.51
2019-04-11T01:54:52.166Z,52.63
2019-04-11T01:57:03.540Z,52.66
2019-04-11T01:59:15.305Z,53.16
2019-04-11T02:01:28.534Z,53.41
2019-04-11T02:03:51.706Z,53.57
2019-04-11T02:06:02.717Z,53.86
2019-04-11T02:08:13.687Z,53.89
2019-04-11T02:10:24.613Z,54.00
2019-04-11T02:12:35.584Z,54.14
2019-04-11T02:14:46.426Z,54.15
2019-04-11T02:16:57.388Z,54.43
2019-04-11T02:19:08.526Z,54.43
2019-04-11T02:21:19.879Z,54.41
2019-04-11T02:23:49.673Z,54.76
2019-04-11T02:26:09.931Z,54.95
2019-04-11T02:28:20.989Z,54.86
2019-04-11T02:30:33.887Z,55.14
2019-04-11T02:32:47.308Z,54.75
2019-04-11T02:34:59.359Z,54.70
2019-04-11T02:37:11.113Z,54.39
2019-04-11T02:39:22.944Z,54.48
2019-04-11T02:41:35.892Z,54.76
2019-04-11T02:43:49.115Z,53.74
2019-04-11T02:46:11.807Z,53.76
2019-04-11T02:48:13.818Z,53.78
2019-04-11T02:50:26.520Z,53.87
2019-04-11T02:52:37.873Z,53.73
2019-04-11T02:54:49.579Z,53.89
2019-04-11T02:57:02.588Z,54.29
2019-04-11T02:59:15.280Z,55.41
2019-04-11T03:01:27.974Z,55.37
2019-04-11T03:03:39.967Z,55.90
2019-04-11T03:05:53.290Z,55.84
2019-04-11T03:08:08.036Z,56.01
2019-04-11T03:10:18.755Z,56.08
2019-04-11T03:12:31.829Z,56.12
2019-04-11T03:15:02.064Z,56.29
2019-04-11T03:17:06.224Z,56.21
2019-04-11T03:19:21.185Z,57.39
2019-04-11T03:21:23.955Z,58.36
2019-04-11T03:23:37.403Z,58.85
2019-04-11T03:25:49.171Z,60.60
2019-04-11T03:28:01.516Z,60.62
2019-04-11T03:30:19.572Z,60.81
2019-04-11T03:33:17.357Z,61.41
2019-04-11T03:35:20.725Z,61.20
2019-04-11T03:37:28.819Z,61.55
2019-04-11T03:39:28.273Z,61.46
2019-04-11T03:41:34.857Z,61.52
2019-04-11T03:43:42.273Z,61.98
2019-04-11T03:46:05.218Z,62.48
2019-04-11T03:48:12.354Z,62.26
2019-04-11T03:50:16.679Z,62.20
2019-04-11T03:52:23.835Z,62.45
2019-04-11T03:54:36.703Z,62.97
2019-04-11T03:56:49.220Z,63.36
2019-04-11T03:59:01.507Z,64.15
2019-04-11T04:01:14.055Z,64.99
2019-04-11T04:03:26.756Z,65.49
2019-04-11T04:05:39.093Z,65.89
2019-04-11T04:07:52.392Z,65.80
2019-04-11T04:10:05.156Z,66.35
2019-04-11T04:12:18.529Z,66.27
2019-04-11T04:14:39.160Z,67.30
2019-04-11T04:17:09.057Z,67.38
2019-04-11T04:19:30.689Z,67.39
2019-04-11T04:21:43.616Z,67.30
2019-04-11T04:23:55.953Z,67.68
2019-04-11T04:26:10.008Z,67.96
2019-04-11T04:28:21.466Z,67.91
2019-04-11T04:30:33.649Z,68.38
2019-04-11T04:32:45.634Z,68.37
2019-04-11T04:34:58.531Z,67.81
2019-04-11T04:37:12.061Z,67.95
2019-04-11T04:39:24.876Z,68.10
2019-04-11T04:41:45.082Z,68.04
2019-04-11T04:43:52.708Z,68.45
2019-04-11T04:46:23.790Z,69.00
2019-04-11T04:48:20.025Z,69.60
2019-04-11T04:50:30.801Z,69.61
2019-04-11T04:52:42.860Z,69.56
2019-04-11T04:54:55.138Z,69.88
2019-04-11T04:57:08.580Z,70.03
2019-04-11T04:59:19.692Z,69.95
2019-04-11T05:01:32.343Z,69.51
2019-04-11T05:03:44.688Z,69.73
2019-04-11T05:05:55.921Z,69.68
2019-04-11T05:08:08.359Z,69.47
2019-04-11T05:10:20.106Z,69.61
2019-04-11T05:12:31.094Z,69.41
2019-04-11T05:14:43.328Z,69.10
2019-04-11T05:16:54.663Z,68.76
2019-04-11T05:19:06.593Z,68.59
2019-04-11T05:21:17.572Z,68.40
2019-04-11T05:23:29.700Z,68.13
2019-04-11T05:25:40.677Z,67.47
2019-04-11T05:27:51.734Z,67.21
2019-04-11T05:30:04.903Z,66.59
2019-04-11T05:32:15.889Z,65.87
2019-04-11T05:34:28.063Z,65.70
2019-04-11T05:36:39.048Z,65.07
2019-04-11T05:38:50.586Z,63.84
2019-04-11T05:41:02.146Z,63.42
2019-04-11T05:43:13.571Z,62.85
2019-04-11T05:45:26.048Z,62.00
2019-04-11T05:47:37.410Z,61.25
2019-04-11T05:50:06.499Z,60.60
2019-04-11T05:52:15.721Z,59.68
2019-04-11T05:54:36.509Z,56.61
2019-04-11T05:56:53.863Z,56.31
2019-04-11T05:59:07.397Z,54.03
2019-04-11T06:01:20.371Z,53.88
2019-04-11T06:03:32.357Z,50.37
2019-04-11T06:05:46.423Z,49.95
2019-04-11T06:07:59.993Z,48.67
2019-04-11T06:10:19.850Z,47.90
2019-04-11T06:12:35.966Z,47.27
2019-04-11T06:14:57.731Z,47.46
2019-04-11T06:17:11.398Z,47.61
2019-04-11T06:19:28.275Z,46.94
2019-04-11T06:21:44.281Z,46.32
2019-04-11T06:23:57.431Z,45.53
2019-04-11T06:26:27.122Z,45.01
2019-04-11T06:28:38.120Z,44.58
2019-04-11T06:31:09.665Z,43.64
2019-04-11T06:33:22.740Z,43.25
2019-04-11T06:35:41.598Z,42.49
2019-04-11T06:38:11.103Z,43.23
2019-04-11T06:40:36.689Z,42.17
2019-04-11T06:43:06.018Z,42.15
2019-04-11T06:45:33.868Z,42.41
2019-04-11T06:47:49.478Z,42.61
2019-04-11T06:50:05.237Z,41.18
2019-04-11T06:52:16.832Z,40.63
2019-04-11T06:54:32.779Z,40.42
2019-04-11T06:56:45.846Z,40.77
2019-04-11T06:58:59.627Z,40.59
2019-04-11T07:01:12.469Z,40.52
2019-04-11T07:03:30.200Z,40.82
2019-04-11T07:05:40.848Z,40.61
2019-04-11T07:07:53.776Z,40.49
2019-04-11T07:10:06.244Z,40.36
2019-04-11T07:12:28.654Z,39.66
2019-04-11T07:14:58.119Z,40.95
2019-04-11T07:17:27.603Z,40.11
2019-04-11T07:19:46.176Z,40.06
2019-04-11T07:21:58.152Z,38.63
2019-04-11T07:24:24.570Z,39.41
2019-04-11T07:26:37.620Z,38.26
2019-04-11T07:28:54.281Z,38.96
2019-04-11T07:31:07.210Z,39.77
2019-04-11T07:33:29.052Z,38.35
2019-04-11T07:35:59.828Z,38.23
2019-04-11T07:38:13.920Z,39.02
2019-04-11T07:40:31.424Z,38.22
2019-04-11T07:42:52.869Z,38.82
2019-04-11T07:45:14.537Z,37.96
2019-04-11T07:47:29.375Z,38.61
2019-04-11T07:49:45.080Z,37.90
2019-04-11T07:51:58.164Z,37.61
2019-04-11T07:54:09.537Z,37.39
2019-04-11T07:56:39.098Z,38.19
2019-04-11T07:58:51.883Z,38.15
2019-04-11T08:01:14.735Z,37.59
2019-04-11T08:03:40.049Z,37.32
2019-04-11T08:05:52.883Z,37.45
2019-04-11T08:08:11.445Z,38.03
2019-04-11T08:10:30.134Z,38.17
2019-04-11T08:12:41.441Z,36.66
2019-04-11T08:15:03.026Z,37.86
2019-04-11T08:17:26.819Z,35.94
2019-04-11T08:19:47.413Z,36.79
2019-04-11T08:22:03.081Z,36.76
2019-04-11T08:24:32.192Z,37.72
2019-04-11T08:26:46.320Z,36.02
2019-04-11T08:29:05.240Z,37.02
2019-04-11T08:31:13.231Z,37.48
2019-04-11T08:33:26.747Z,37.48
2019-04-11T08:35:40.191Z,37.77
2019-04-11T08:37:56.041Z,38.89
2019-04-11T08:40:09.395Z,39.13
2019-04-11T08:42:40.631Z,38.71
2019-04-11T08:44:52.224Z,38.24
2019-04-11T08:47:04.428Z,37.80
2019-04-11T08:49:19.997Z,37.85
2019-04-11T08:51:33.631Z,38.36
2019-04-11T08:53:46.547Z,39.28
2019-04-11T08:56:01.063Z,39.05
2019-04-11T08:58:14.181Z,40.15
2019-04-11T09:00:31.274Z,39.58
2019-04-11T09:02:43.030Z,39.13
2019-04-11T09:05:15.670Z,38.50
2019-04-11T09:07:33.828Z,38.24
2019-04-11T09:10:04.115Z,38.77
2019-04-11T09:12:15.249Z,38.88
2019-04-11T09:14:38.012Z,38.60
2019-04-11T09:16:59.869Z,39.71
2019-04-11T09:19:18.856Z,39.80
2019-04-11T09:21:48.712Z,38.89
2019-04-11T09:24:01.895Z,37.15
2019-04-11T09:26:18.085Z,39.67
2019-04-11T09:28:31.310Z,37.64
2019-04-11T09:31:01.192Z,39.86
2019-04-11T09:33:31.118Z,37.14
2019-04-11T09:35:47.148Z,36.67
2019-04-11T09:38:02.685Z,37.05
2019-04-11T09:40:21.226Z,37.98
2019-04-11T09:42:34.588Z,37.79
2019-04-11T09:44:47.480Z,37.26
2019-04-11T09:47:03.335Z,38.60
2019-04-11T09:49:16.244Z,38.67
2019-04-11T09:51:35.867Z,38.96
2019-04-11T09:53:52.886Z,39.70
2019-04-11T09:56:08.922Z,38.77
2019-04-11T09:58:25.332Z,38.48
2019-04-11T10:00:47.408Z,38.49
2019-04-11T10:03:00.829Z,37.77
2019-04-11T10:05:16.558Z,36.77
2019-04-11T10:07:35.597Z,38.27
2019-04-11T10:09:48.533Z,39.96
2019-04-11T10:12:18.139Z,37.25
2019-04-11T10:14:29.483Z,37.52
2019-04-11T10:17:00.562Z,37.61
2019-04-11T10:19:15.786Z,38.46
2019-04-11T10:21:29.013Z,36.27
2019-04-11T10:23:51.334Z,36.67
2019-04-11T10:26:03.534Z,37.59
2019-04-11T10:28:19.625Z,37.07
2019-04-11T10:30:48.249Z,36.79
2019-04-11T10:33:17.642Z,35.30
2019-04-11T10:35:48.294Z,35.76
2019-04-11T10:38:00.481Z,34.74
2019-04-11T10:40:30.275Z,37.82
2019-04-11T10:42:42.450Z,36.72
2019-04-11T10:45:01.067Z,38.60
2019-04-11T10:47:14.519Z,36.79
2019-04-11T10:49:36.629Z,37.17
2019-04-11T10:52:06.599Z,36.75
2019-04-11T10:54:17.550Z,37.22
2019-04-11T10:56:43.275Z,35.40
2019-04-11T10:58:55.358Z,37.51
2019-04-11T11:01:09.403Z,37.50
2019-04-11T11:03:30.830Z,39.36
2019-04-11T11:05:43.616Z,37.26
2019-04-11T11:07:57.169Z,36.58
2019-04-11T11:10:11.110Z,37.00
2019-04-11T11:12:25.224Z,37.51
2019-04-11T11:14:44.957Z,36.36
2019-04-11T11:17:06.788Z,36.98
2019-04-11T11:19:51.461Z,37.92
2019-04-11T11:21:51.356Z,35.53
2019-04-11T11:24:23.857Z,37.03
2019-04-11T11:26:35.569Z,37.41
2019-04-11T11:29:10.421Z,38.87
2019-04-11T11:31:22.365Z,38.42
2019-04-11T11:33:34.720Z,37.14
2019-04-11T11:35:50.253Z,37.19
2019-04-11T11:38:03.932Z,37.24
2019-04-11T11:40:23.693Z,38.93
2019-04-11T11:42:54.597Z,37.09
2019-04-11T11:45:23.932Z,37.52
2019-04-11T11:47:45.529Z,37.03
2019-04-11T11:50:02.391Z,38.77
2019-04-11T11:52:16.969Z,38.26
2019-04-11T11:54:31.315Z,38.40
2019-04-11T11:56:44.469Z,37.26
2019-04-11T11:59:16.683Z,37.41
2019-04-11T12:01:29.635Z,39.84
2019-04-11T12:03:42.568Z,39.73
2019-04-11T12:05:59.085Z,38.29
2019-04-11T12:08:24.610Z,37.29
2019-04-11T12:10:49.707Z,37.29
2019-04-11T12:13:09.470Z,37.84
2019-04-11T12:15:22.290Z,37.90
2019-04-11T12:17:51.977Z,37.29
2019-04-11T12:20:11.051Z,42.42
2019-04-11T12:22:20.086Z,37.26
2019-04-11T12:24:34.315Z,37.23
2019-04-11T12:26:50.312Z,37.21
2019-04-11T12:29:18.593Z,38.07
2019-04-11T12:31:35.617Z,37.81
2019-04-11T12:34:00.042Z,38.21
2019-04-11T12:36:12.934Z,40.03
2019-04-11T12:38:25.669Z,37.59
2019-04-11T12:40:56.532Z,37.07
2019-04-11T12:43:52.935Z,37.26
2019-04-11T12:46:29.743Z,37.40
2019-04-11T12:48:36.995Z,38.55
2019-04-11T12:51:06.505Z,37.03
2019-04-11T12:53:17.343Z,39.82
2019-04-11T12:55:33.254Z,37.48
2019-04-11T12:57:58.051Z,38.75
2019-04-11T13:00:17.871Z,37.61
2019-04-11T13:02:42.735Z,37.79
2019-04-11T13:04:53.798Z,38.31
2019-04-11T13:07:18.777Z,38.03
2019-04-11T13:09:31.571Z,39.01
2019-04-11T13:11:44.483Z,39.74
2019-04-11T13:14:03.221Z,38.60
2019-04-11T13:16:15.080Z,38.63
2019-04-11T13:18:27.856Z,38.83
2019-04-11T13:20:43.597Z,37.36
2019-04-11T13:22:56.469Z,38.02
2019-04-11T13:25:12.282Z,37.13
2019-04-11T13:27:24.948Z,38.24
2019-04-11T13:29:43.712Z,37.25
2019-04-11T13:32:13.135Z,37.72
2019-04-11T13:34:28.423Z,37.98
2019-04-11T13:36:50.319Z,37.15
2019-04-11T13:39:03.448Z,38.74
2019-04-11T13:41:21.582Z,37.38
2019-04-11T13:43:40.115Z,37.66
2019-04-11T13:46:01.883Z,37.89
2019-04-11T13:48:31.457Z,38.60
2019-04-11T13:50:42.285Z,38.24
2019-04-11T13:53:11.846Z,37.28
2019-04-11T13:55:22.711Z,38.47
2019-04-11T13:57:38.009Z,37.12
2019-04-11T14:00:07.502Z,36.89
2019-04-11T14:02:22.971Z,39.38
2019-04-11T14:04:38.381Z,37.83
2019-04-11T14:06:49.515Z,38.36
2019-04-11T14:09:17.397Z,37.32
2019-04-11T14:11:28.761Z,37.46
2019-04-11T14:13:45.795Z,37.44
2019-04-11T14:16:04.581Z,36.62
2019-04-11T14:18:20.462Z,37.59
2019-04-11T14:20:41.743Z,37.23
2019-04-11T14:22:59.717Z,36.97
2019-04-11T14:25:15.037Z,37.22
2019-04-11T14:27:27.250Z,37.21
2019-04-11T14:29:42.739Z,35.69
2019-04-11T14:31:58.462Z,37.26
2019-04-11T14:34:14.189Z,37.14
2019-04-11T14:36:33.638Z,35.54
2019-04-11T14:38:47.995Z,36.36
2019-04-11T14:41:01.744Z,38.42
2019-04-11T14:43:16.911Z,35.93
2019-04-11T14:45:36.293Z,36.69
2019-04-11T14:48:04.058Z,35.08
2019-04-11T14:50:17.961Z,36.11
2019-04-11T14:52:30.874Z,36.08
2019-04-11T14:54:43.194Z,35.75
2019-04-11T14:57:01.989Z,35.61
2019-04-11T14:59:24.732Z,36.75
2019-04-11T15:01:35.859Z,37.52
2019-04-11T15:04:05.257Z,36.53
2019-04-11T15:06:31.308Z,35.55
2019-04-11T15:08:53.629Z,35.08
2019-04-11T15:11:09.733Z,35.69
2019-04-11T15:13:22.608Z,35.93
2019-04-11T15:15:35.341Z,36.07
2019-04-11T15:17:46.925Z,35.84
2019-04-11T15:20:02.352Z,35.92
2019-04-11T15:22:31.010Z,36.03
2019-04-11T15:24:43.867Z,36.93
2019-04-11T15:27:06.562Z,36.99
2019-04-11T15:29:20.007Z,44.75
2019-04-11T15:31:39.121Z,35.07
2019-04-11T15:33:53.668Z,34.97
2019-04-11T15:36:06.420Z,35.25
2019-04-11T15:38:36.000Z,36.32
2019-04-11T15:40:47.881Z,35.58
2019-04-11T15:43:11.885Z,36.63
2019-04-11T15:45:24.416Z,36.08
2019-04-11T15:47:37.228Z,35.79
2019-04-11T15:49:55.758Z,36.34
2019-04-11T15:52:08.513Z,35.63
2019-04-11T15:54:21.400Z,36.04
2019-04-11T15:56:50.986Z,35.55
2019-04-11T15:59:03.961Z,36.69
2019-04-11T16:01:33.278Z,36.99
2019-04-11T16:03:44.132Z,37.77
2019-04-11T16:06:06.034Z,36.48
2019-04-11T16:08:19.287Z,35.67
2019-04-11T16:10:32.057Z,36.02
2019-04-11T16:12:47.525Z,36.65
2019-04-11T16:15:17.091Z,36.14
2019-04-11T16:17:46.335Z,36.31
2019-04-11T16:19:58.910Z,36.16
2019-04-11T16:22:17.503Z,36.40
2019-04-11T16:24:30.294Z,36.48
2019-04-11T16:26:48.928Z,35.80
2019-04-11T16:29:01.684Z,36.03
2019-04-11T16:31:12.619Z,35.79
2019-04-11T16:33:45.712Z,35.85
2019-04-11T16:35:59.996Z,36.03
2019-04-11T16:38:12.744Z,36.18
2019-04-11T16:40:42.120Z,35.58
2019-04-11T16:42:54.854Z,36.76
2019-04-11T16:45:25.728Z,36.47
2019-04-11T16:47:41.546Z,36.81
2019-04-11T16:49:52.501Z,36.98
2019-04-11T16:52:07.507Z,36.85
2019-04-11T16:54:16.399Z,35.93
2019-04-11T16:56:27.357Z,36.16
2019-04-11T16:58:40.123Z,35.74
2019-04-11T17:00:52.573Z,35.84
2019-04-11T17:03:03.999Z,36.17
2019-04-11T17:05:14.974Z,36.67
2019-04-11T17:07:36.965Z,36.56
2019-04-11T17:09:49.721Z,36.72
2019-04-11T17:12:00.615Z,36.75
2019-04-11T17:14:12.002Z,36.39
2019-04-11T17:16:22.974Z,36.50
2019-04-11T17:18:34.940Z,36.44
2019-04-11T17:20:46.016Z,36.69
2019-04-11T17:22:56.918Z,37.18
2019-04-11T17:25:07.873Z,37.32
2019-04-11T17:27:21.007Z,37.80
2019-04-11T17:29:31.847Z,38.00
2019-04-11T17:31:42.747Z,37.57
2019-04-11T17:33:56.454Z,37.70
2019-04-11T17:36:06.600Z,38.04
2019-04-11T17:38:17.991Z,38.29
2019-04-11T17:40:28.898Z,38.24
2019-04-11T17:42:43.838Z,38.72
2019-04-11T17:44:52.635Z,38.70
2019-04-11T17:47:03.598Z,39.13
2019-04-11T17:49:14.586Z,39.00
2019-04-11T17:51:25.425Z,39.27
2019-04-11T17:53:36.406Z,39.43
2019-04-11T17:55:47.337Z,39.75
2019-04-11T17:57:58.304Z,39.90
2019-04-11T18:00:11.798Z,39.94
2019-04-11T18:02:22.764Z,39.38
2019-04-11T18:04:33.742Z,38.98
2019-04-11T18:06:47.010Z,39.42
2019-04-11T18:08:57.527Z,39.40
2019-04-11T18:11:08.467Z,39.42
2019-04-11T18:13:19.339Z,39.73
2019-04-11T18:15:31.269Z,39.62
2019-04-11T18:17:42.794Z,39.88
2019-04-11T18:19:53.665Z,40.09
2019-04-11T18:22:08.248Z,40.54
2019-04-11T18:24:19.981Z,40.67
2019-04-11T18:26:30.868Z,40.77
2019-04-11T18:28:41.710Z,41.06
2019-04-11T18:30:54.126Z,41.26
2019-04-11T18:33:05.563Z,41.55
2019-04-11T18:35:16.527Z,41.62
2019-04-11T18:37:29.768Z,41.92
2019-04-11T18:39:40.229Z,42.18
2019-04-11T18:41:51.101Z,42.22
2019-04-11T18:44:01.946Z,42.02
2019-04-11T18:46:13.036Z,42.25
2019-04-11T18:48:23.880Z,42.11
2019-04-11T18:50:34.791Z,42.31
2019-04-11T18:52:45.641Z,42.25
2019-04-11T18:54:56.525Z,42.49
2019-04-11T18:57:07.573Z,42.75
2019-04-11T18:59:18.436Z,43.05
2019-04-11T19:01:29.489Z,42.50
2019-04-11T19:03:41.397Z,42.31
2019-04-11T19:05:52.878Z,42.31
2019-04-11T19:08:03.872Z,42.78
2019-04-11T19:10:15.756Z,42.97
2019-04-11T19:12:26.819Z,42.54
2019-04-11T19:14:37.790Z,42.27
2019-04-11T19:16:48.654Z,42.33
2019-04-11T19:19:01.726Z,42.12
2019-04-11T19:21:12.383Z,42.15
2019-04-11T19:23:23.292Z,42.19
2019-04-11T19:25:34.443Z,42.30
2019-04-11T19:27:45.306Z,42.36
2019-04-11T19:29:56.683Z,42.20
2019-04-11T19:32:07.876Z,42.35
2019-04-11T19:34:18.754Z,42.32
2019-04-11T19:36:29.851Z,42.74
2019-04-11T19:38:43.264Z,42.38
2019-04-11T19:40:55.622Z,44.42
2019-04-11T19:43:06.574Z,45.28
2019-04-11T19:45:19.534Z,47.14
2019-04-11T19:47:30.393Z,47.48
2019-04-11T19:49:41.260Z,48.38
2019-04-11T19:51:52.202Z,49.18
2019-04-11T19:54:03.877Z,50.11
2019-04-11T19:56:29.061Z,50.11
2019-04-11T19:58:40.129Z,51.06
2019-04-11T20:00:53.413Z,51.45
2019-04-11T20:03:03.975Z,51.78
2019-04-11T20:05:14.835Z,51.63
2019-04-11T20:07:25.722Z,50.86
2019-04-11T20:09:36.582Z,51.57
2019-04-11T20:11:47.736Z,51.52
2019-04-11T20:14:00.085Z,51.06
2019-04-11T20:16:12.497Z,50.41
2019-04-11T20:18:24.298Z,50.58
2019-04-11T20:20:37.037Z,49.71
2019-04-11T20:22:58.396Z,49.72
2019-04-11T20:25:00.867Z,49.33
2019-04-11T20:27:11.811Z,49.70
2019-04-11T20:29:22.677Z,47.80
2019-04-11T20:31:33.625Z,49.14
2019-04-11T20:33:44.521Z,49.18
2019-04-11T20:35:55.403Z,48.92
2019-04-11T20:38:06.308Z,48.46
2019-04-11T20:40:18.129Z,47.70
2019-04-11T20:42:29.967Z,46.58
2019-04-11T20:44:40.842Z,46.48
2019-04-11T20:46:51.715Z,46.02
2019-04-11T20:49:02.784Z,45.16
2019-04-11T20:51:13.666Z,45.64
2019-04-11T20:53:24.514Z,44.89
2019-04-11T20:55:39.027Z,45.00
2019-04-11T20:57:48.249Z,44.91
2019-04-11T20:59:59.218Z,45.83
2019-04-11T21:02:10.154Z,45.08
2019-04-11T21:04:21.154Z,45.22
2019-04-11T21:06:32.596Z,45.04
2019-04-11T21:08:43.593Z,45.12
2019-04-11T21:10:56.398Z,45.04
2019-04-11T21:13:07.819Z,44.56
2019-04-11T21:15:18.846Z,44.19
2019-04-11T21:17:29.731Z,44.44
2019-04-11T21:19:40.698Z,44.63
2019-04-11T21:21:53.346Z,45.14
2019-04-11T21:24:04.324Z,45.04
2019-04-11T21:26:15.185Z,44.76
2019-04-11T21:28:27.872Z,45.17
2019-04-11T21:30:38.817Z,45.59
2019-04-11T21:32:49.683Z,45.64
2019-04-11T21:35:02.351Z,45.92
2019-04-11T21:37:13.436Z,45.95
2019-04-11T21:39:24.276Z,45.91
2019-04-11T21:41:36.259Z,46.49
2019-04-11T21:43:47.708Z,46.65
2019-04-11T21:45:58.562Z,46.74
2019-04-11T21:48:09.515Z,46.24
2019-04-11T21:50:20.478Z,46.31
2019-04-11T21:52:32.289Z,46.37
2019-04-11T21:54:45.284Z,46.62
2019-04-11T21:56:56.079Z,46.65
2019-04-11T21:59:06.929Z,46.76
2019-04-11T22:01:18.299Z,47.19
2019-04-11T22:03:29.736Z,47.25
2019-04-11T22:05:40.793Z,46.96
2019-04-11T22:07:51.660Z,47.16
2019-04-11T22:10:06.994Z,47.19
2019-04-11T22:12:17.630Z,47.46
2019-04-11T22:14:28.472Z,47.55
2019-04-11T22:16:44.226Z,47.75
2019-04-11T22:18:52.691Z,48.04
2019-04-11T22:21:03.550Z,47.74
2019-04-11T22:23:14.552Z,48.21
2019-04-11T22:25:25.435Z,48.38
2019-04-11T22:27:36.327Z,49.13
2019-04-11T22:29:47.204Z,48.94
2019-04-11T22:31:58.036Z,48.58
2019-04-11T22:34:10.831Z,48.67
2019-04-11T22:36:21.707Z,49.02
2019-04-11T22:38:32.561Z,48.67
2019-04-11T22:40:43.413Z,49.05
2019-04-11T22:42:54.365Z,48.90
2019-04-11T22:45:05.971Z,48.98
2019-04-11T22:47:18.381Z,49.06
2019-04-11T22:49:29.216Z,48.96
2019-04-11T22:51:42.896Z,49.29
2019-04-11T22:54:00.271Z,49.21
2019-04-11T22:56:05.617Z,49.29
2019-04-11T22:58:16.600Z,49.32
2019-04-11T23:00:27.576Z,49.43
2019-04-11T23:02:40.324Z,50.12
2019-04-11T23:04:51.270Z,50.16
2019-04-11T23:07:02.107Z,49.72
2019-04-11T23:09:16.605Z,50.03
2019-04-11T23:11:27.646Z,50.52
2019-04-11T23:13:38.536Z,50.20
2019-04-11T23:15:49.410Z,50.39
2019-04-11T23:18:00.264Z,50.46
2019-04-11T23:20:11.848Z,50.79
2019-04-11T23:22:23.990Z,50.76
2019-04-11T23:24:34.843Z,51.05
2019-04-11T23:26:45.689Z,51.11
2019-04-11T23:28:56.551Z,51.00
2019-04-11T23:31:07.425Z,51.15
2019-04-11T23:33:18.972Z,51.15
2019-04-11T23:35:31.032Z,51.05
2019-04-11T23:37:43.913Z,51.16
2019-04-11T23:39:54.774Z,50.96
2019-04-11T23:42:05.614Z,50.76
2019-04-11T23:44:18.067Z,50.78
2019-04-11T23:46:29.362Z,50.80
2019-04-11T23:48:40.214Z,50.99
2019-04-11T23:50:54.818Z,51.03
2019-04-11T23:53:03.806Z,51.19
2019-04-11T23:55:14.703Z,51.69
2019-04-11T23:57:25.632Z,51.28
2019-04-11T23:59:36.513Z,51.52
